Time;durP1;ratioP1;P1;durP2;ratioP2;P2;SDS_P1;SDS_P2;PMS_P1;PMS_P2;Temp;Humidity;BMP_temperature;BMP_pressure;BME280_temperature;BME280_humidity;BME280_pressure;Samples;Min_cycle;Max_cycle;Signal;HPM_P1;HPM_P2
2022/04/27 09:59:54;;;;;;;1.60;1.50;;;14.40;98.00;;;;;;4934354;23;966123;-71
2022/04/27 10:02:26;;;;;;;1.30;1.30;;;14.40;98.00;;;;;;4923128;29;20512;-70
2022/04/27 10:07:27;;;;;;;2.53;1.50;;;14.20;98.00;;;;;;4924795;28;20491;-72
2022/04/27 10:09:54;;;;;;;1.50;1.30;;;14.30;98.00;;;;;;4927085;29;20456;-72
2022/04/27 10:12:21;;;;;;;1.30;1.10;;;14.10;98.00;;;;;;4932111;29;20476;-71
2022/04/27 10:14:48;;;;;;;1.50;1.43;;;14.20;98.00;;;;;;4928128;29;20467;-72
2022/04/27 10:17:17;;;;;;;3.00;2.07;;;14.20;98.00;;;;;;4946166;29;20465;-70
2022/04/27 10:19:48;;;;;;;2.27;1.50;;;14.30;98.00;;;;;;4927705;29;20464;-73
2022/04/27 10:22:34;;;;;;;2.03;1.50;;;14.20;98.00;;;;;;4937498;29;20577;-73
2022/04/27 10:25:07;;;;;;;1.70;1.67;;;14.20;98.00;;;;;;4930948;29;20814;-71
2022/04/27 10:27:38;;;;;;;1.20;1.10;;;14.30;98.00;;;;;;4937181;29;20501;-71
2022/04/27 10:30:08;;;;;;;1.70;1.60;;;14.30;98.00;;;;;;4940596;29;20470;-71
2022/04/27 10:32:39;;;;;;;2.13;1.77;;;14.20;98.00;;;;;;4936361;29;20555;-72
2022/04/27 10:35:27;;;;;;;1.93;1.40;;;14.30;98.00;;;;;;4921228;29;20469;-69
2022/04/27 10:37:57;;;;;;;1.30;1.30;;;14.30;98.00;;;;;;4914861;29;20661;-69
2022/04/27 10:40:36;;;;;;;2.00;1.43;;;14.20;98.00;;;;;;4923526;29;20977;-69
2022/04/27 10:43:12;;;;;;;1.23;1.07;;;14.20;98.00;;;;;;4931237;29;20496;-71
2022/04/27 10:45:41;;;;;;;1.30;1.20;;;14.30;98.00;;;;;;4924514;29;20463;-68
2022/04/27 10:48:16;;;;;;;1.97;1.57;;;14.30;98.00;;;;;;4932943;29;20974;-70
2022/04/27 10:50:55;;;;;;;1.70;1.40;;;14.30;98.00;;;;;;4915274;29;20845;-70
2022/04/27 10:53:24;;;;;;;2.47;1.60;;;14.10;98.00;;;;;;4916984;29;20463;-69
2022/04/27 10:55:54;;;;;;;1.40;1.10;;;14.20;98.00;;;;;;4924710;29;20454;-69
2022/04/27 10:58:30;;;;;;;1.53;1.33;;;14.20;98.00;;;;;;4916500;29;20954;-69
2022/04/27 11:01:24;;;;;;;1.60;1.27;;;14.40;98.00;;;;;;4924279;29;20919;-69
2022/04/27 11:04:05;;;;;;;1.40;1.37;;;14.60;98.00;;;;;;4902150;29;20545;-70
2022/04/27 11:07:06;;;;;;;2.47;1.93;;;14.80;98.00;;;;;;4914600;29;20593;-69
2022/04/27 11:10:07;;;;;;;2.43;1.60;;;15.10;98.00;;;;;;4912099;29;20472;-71
2022/04/27 11:12:36;;;;;;;3.37;1.63;;;15.40;98.00;;;;;;4923297;29;20456;-69
2022/04/27 11:15:04;;;;;;;2.30;1.77;;;15.60;98.00;;;;;;4916979;29;20470;-71
2022/04/27 11:17:33;;;;;;;1.97;1.53;;;15.80;98.00;;;;;;4917484;29;20463;-71
2022/04/27 11:20:03;;;;;;;1.30;1.23;;;15.80;98.00;;;;;;4924732;29;20553;-69
2022/04/27 11:22:38;;;;;;;1.80;1.43;;;15.80;98.00;;;;;;4924553;29;20557;-71
2022/04/27 11:25:07;;;;;;;2.30;1.60;;;16.50;98.00;;;;;;4922544;29;20505;-69
2022/04/27 11:27:36;;;;;;;1.80;1.60;;;17.20;97.20;;;;;;4923784;29;20517;-69
2022/04/27 11:30:05;;;;;;;1.60;1.50;;;17.80;96.70;;;;;;4916755;29;20519;-69
2022/04/27 11:32:32;;;;;;;2.53;1.83;;;18.10;94.20;;;;;;4922956;29;20820;-69
2022/04/27 11:35:01;;;;;;;2.00;1.57;;;18.30;93.50;;;;;;4917297;29;20463;-70
2022/04/27 11:37:30;;;;;;;1.97;1.60;;;18.60;94.30;;;;;;4914870;29;20464;-70
2022/04/27 11:40:12;;;;;;;3.03;1.80;;;18.80;93.30;;;;;;4932679;29;20555;-70
2022/04/27 11:42:49;;;;;;;1.70;1.60;;;19.10;92.90;;;;;;4924990;29;20499;-71
2022/04/27 11:45:20;;;;;;;1.47;1.40;;;19.30;90.00;;;;;;4916292;29;20957;-69
2022/04/27 11:47:57;;;;;;;1.70;1.40;;;19.80;91.30;;;;;;4923742;29;20459;-70
2022/04/27 11:50:26;;;;;;;1.80;1.80;;;20.10;87.90;;;;;;4915476;29;20546;-70
2022/04/27 11:52:58;;;;;;;1.93;1.60;;;20.40;86.30;;;;;;4946755;29;20567;-71
2022/04/27 11:55:26;;;;;;;1.97;1.77;;;20.70;86.90;;;;;;4929027;29;20471;-70
2022/04/27 11:57:53;;;;;;;2.17;1.50;;;21.20;85.70;;;;;;4925618;29;20475;-69
2022/04/27 12:00:21;;;;;;;1.63;1.57;;;21.50;83.80;;;;;;4921823;29;20471;-70
2022/04/27 12:02:49;;;;;;;2.27;1.70;;;21.40;85.20;;;;;;4916808;29;20499;-70
2022/04/27 12:05:17;;;;;;;2.60;1.73;;;21.40;83.60;;;;;;4923291;29;20969;-70
2022/04/27 12:07:50;;;;;;;2.20;1.80;;;21.30;82.90;;;;;;4916003;29;20467;-70
2022/04/27 12:10:17;;;;;;;2.07;1.67;;;21.40;83.90;;;;;;4928207;29;20512;-69
2022/04/27 12:12:44;;;;;;;2.80;1.80;;;21.50;80.90;;;;;;4918304;29;20459;-70
2022/04/27 12:15:13;;;;;;;2.87;2.10;;;21.90;84.50;;;;;;4920964;29;20474;-70
2022/04/27 12:17:46;;;;;;;3.17;2.27;;;22.10;80.30;;;;;;4909999;29;20652;-70
2022/04/27 12:20:25;;;;;;;2.00;1.67;;;21.90;80.60;;;;;;4915426;29;20455;-70
2022/04/27 12:22:55;;;;;;;2.43;1.90;;;20.80;81.60;;;;;;4919608;29;20603;-71
2022/04/27 12:25:23;;;;;;;2.47;1.60;;;20.20;82.00;;;;;;4917065;29;20468;-70
2022/04/27 12:27:53;;;;;;;4.60;2.47;;;19.60;83.60;;;;;;4927546;29;20459;-70
2022/04/27 12:30:21;;;;;;;3.40;2.13;;;19.00;84.80;;;;;;4925785;29;20958;-70
2022/04/27 12:32:49;;;;;;;2.00;1.80;;;18.50;86.40;;;;;;4920036;29;20870;-69
2022/04/27 12:38:13;;;;;;;2.57;1.90;;;17.80;87.90;;;;;;4930496;29;20449;-69
2022/04/27 12:40:42;;;;;;;2.33;1.40;;;17.90;89.70;;;;;;4922826;29;20475;-70
2022/04/27 12:43:09;;;;;;;2.77;1.83;;;18.00;89.90;;;;;;4922812;29;20502;-70
2022/04/27 12:45:37;;;;;;;1.80;1.60;;;18.50;90.60;;;;;;4923035;29;20476;-70
2022/04/27 12:48:06;;;;;;;2.40;1.90;;;18.50;90.80;;;;;;4921689;29;20889;-69
2022/04/27 12:50:35;;;;;;;1.30;1.20;;;18.10;89.40;;;;;;4913293;29;20456;-71
2022/04/27 12:53:09;;;;;;;1.90;1.60;;;17.80;90.40;;;;;;4922518;29;20470;-70
2022/04/27 12:55:39;;;;;;;2.10;1.90;;;17.40;91.90;;;;;;4907113;29;20540;-69
2022/04/27 12:58:06;;;;;;;3.20;2.00;;;17.10;93.40;;;;;;4922582;29;20515;-69
2022/04/27 13:00:42;;;;;;;1.50;1.43;;;16.90;93.90;;;;;;4921839;29;20474;-72
2022/04/27 13:03:10;;;;;;;2.63;2.07;;;16.70;95.70;;;;;;4922558;29;21087;-69
2022/04/27 13:05:40;;;;;;;2.77;2.03;;;16.50;97.20;;;;;;4919435;29;20543;-69
2022/04/27 13:08:08;;;;;;;1.60;1.50;;;16.40;96.50;;;;;;4915512;29;20475;-69
2022/04/27 13:13:22;;;;;;;2.37;1.70;;;16.20;98.00;;;;;;4921949;29;20446;-69
2022/04/27 13:15:50;;;;;;;2.90;1.87;;;16.10;97.80;;;;;;4920733;29;20476;-70
2022/04/27 13:18:17;;;;;;;3.70;2.43;;;16.10;97.90;;;;;;4916725;29;20553;-68
2022/04/27 13:20:45;;;;;;;2.70;1.63;;;16.10;97.90;;;;;;4925967;29;20469;-68
2022/04/27 13:23:13;;;;;;;2.97;2.10;;;16.20;97.80;;;;;;4942156;29;20993;-70
2022/04/27 13:25:42;;;;;;;1.53;1.50;;;16.20;98.00;;;;;;4914800;29;20466;-69
2022/04/27 13:28:09;;;;;;;1.93;1.60;;;16.40;98.00;;;;;;4913368;29;20478;-69
2022/04/27 13:30:40;;;;;;;1.63;1.57;;;16.50;98.00;;;;;;4920013;29;20481;-70
2022/04/27 13:33:07;;;;;;;1.97;1.53;;;16.60;97.50;;;;;;4912976;29;20463;-70
2022/04/27 13:35:35;;;;;;;5.77;2.10;;;16.70;96.60;;;;;;4913675;29;20468;-69
2022/04/27 13:38:06;;;;;;;2.57;1.67;;;16.50;96.80;;;;;;4916082;29;20462;-70
2022/04/27 13:40:34;;;;;;;1.87;1.83;;;16.50;98.00;;;;;;4916594;29;20464;-70
2022/04/27 13:43:13;;;;;;;1.40;1.37;;;16.80;95.20;;;;;;4916184;29;20496;-70
2022/04/27 13:45:45;;;;;;;2.23;1.93;;;16.80;94.80;;;;;;4913850;29;20579;-69
2022/04/27 13:48:13;;;;;;;3.00;1.87;;;16.90;94.30;;;;;;5096446;23;20494;-69
2022/04/27 13:50:40;;;;;;;2.80;1.60;;;17.30;95.60;;;;;;4905828;29;20571;-70
2022/04/27 13:53:07;;;;;;;2.57;1.97;;;18.40;94.10;;;;;;4908479;29;20468;-71
2022/04/27 13:55:36;;;;;;;1.70;1.50;;;19.40;89.70;;;;;;4911256;29;20471;-70
2022/04/27 13:58:27;;;;;;;2.03;1.87;;;20.00;86.90;;;;;;4909542;29;20460;-70
2022/04/27 14:00:56;;;;;;;1.60;1.53;;;20.00;86.30;;;;;;4912838;29;20958;-72
2022/04/27 14:03:28;;;;;;;1.80;1.80;;;19.70;88.00;;;;;;4913517;29;20517;-71
2022/04/27 14:05:55;;;;;;;1.80;1.47;;;19.40;86.70;;;;;;4912525;29;20464;-71
2022/04/27 14:08:22;;;;;;;1.70;1.60;;;19.00;86.80;;;;;;4912763;29;20475;-69
2022/04/27 14:10:49;;;;;;;4.17;1.70;;;18.70;88.10;;;;;;4916053;29;20463;-70
2022/04/27 14:13:16;;;;;;;4.30;1.30;;;18.50;87.60;;;;;;4915125;29;20502;-71
2022/04/27 14:18:09;;;;;;;3.90;2.00;;;18.40;87.90;;;;;;4914458;29;20889;-70
2022/04/27 14:18:32;;;;;;;2.73;2.07;;;18.30;88.50;;;;;;4911813;29;20984;-70
2022/04/27 14:21:08;;;;;;;1.73;1.67;;;18.10;89.30;;;;;;4903920;29;20468;-70
2022/04/27 14:23:36;;;;;;;1.70;1.70;;;18.20;88.00;;;;;;4915126;29;20869;-70
2022/04/27 14:26:03;;;;;;;3.97;1.90;;;18.00;87.60;;;;;;4915242;29;20472;-70
2022/04/27 14:28:31;;;;;;;1.63;1.50;;;17.90;87.90;;;;;;4914691;29;20834;-70
2022/04/27 14:30:58;;;;;;;3.20;1.83;;;17.80;88.20;;;;;;4914640;29;20571;-70
2022/04/27 14:33:29;;;;;;;2.27;1.60;;;17.80;89.90;;;;;;4915464;29;20460;-71
2022/04/27 14:35:57;;;;;;;1.90;1.50;;;18.00;88.00;;;;;;4912446;29;21041;-70
2022/04/27 14:38:24;;;;;;;2.90;1.93;;;17.90;88.60;;;;;;4915276;29;20964;-70
2022/04/27 14:40:55;;;;;;;2.50;1.80;;;17.90;90.00;;;;;;4915591;29;20479;-69
2022/04/27 14:43:23;;;;;;;2.87;2.00;;;18.00;88.90;;;;;;4913542;29;20499;-69
2022/04/27 14:45:50;;;;;;;1.40;1.40;;;18.30;89.10;;;;;;4916057;29;20483;-70
2022/04/27 14:48:17;;;;;;;3.10;2.10;;;18.90;87.30;;;;;;4913419;29;20510;-71
2022/04/27 14:50:46;;;;;;;2.00;1.87;;;19.80;86.30;;;;;;4913199;29;20976;-70
2022/04/27 14:53:14;;;;;;;4.00;2.43;;;20.30;83.90;;;;;;4913571;29;20932;-70
2022/04/27 14:55:43;;;;;;;9.53;3.93;;;20.90;81.10;;;;;;4915209;29;20620;-70
2022/04/27 14:58:11;;;;;;;2.83;1.93;;;21.40;78.80;;;;;;4916886;29;20804;-70
2022/04/27 15:00:38;;;;;;;2.37;1.90;;;21.80;79.00;;;;;;4917909;29;20672;-71
2022/04/27 15:03:05;;;;;;;3.50;2.30;;;22.00;77.50;;;;;;4917061;29;20493;-70
2022/04/27 15:05:32;;;;;;;15.97;7.90;;;22.30;77.00;;;;;;4916903;29;20518;-69
2022/04/27 15:07:59;;;;;;;4.03;3.10;;;22.50;75.40;;;;;;4917409;29;20955;-72
2022/04/27 15:10:28;;;;;;;2.27;1.60;;;22.70;77.80;;;;;;4915946;29;20468;-70
2022/04/27 15:12:55;;;;;;;3.07;2.40;;;22.50;74.00;;;;;;4916836;29;20987;-69
2022/04/27 15:15:23;;;;;;;4.67;2.67;;;22.70;76.70;;;;;;4915133;29;20465;-70
2022/04/27 15:17:50;;;;;;;10.40;4.63;;;22.80;76.00;;;;;;4916911;29;20753;-71
2022/04/27 15:23:02;;;;;;;4.10;2.60;;;23.10;74.40;;;;;;4916470;29;20534;-72
2022/04/27 15:25:30;;;;;;;3.50;2.47;;;23.00;74.60;;;;;;4915601;29;20460;-69
2022/04/27 15:27:57;;;;;;;4.70;2.20;;;22.00;72.80;;;;;;4916653;29;20460;-69
2022/04/27 15:30:27;;;;;;;2.57;1.93;;;21.20;75.40;;;;;;4916705;29;20464;-71
2022/04/27 15:32:55;;;;;;;3.17;2.17;;;20.80;75.90;;;;;;4916501;29;20460;-70
2022/04/27 15:35:22;;;;;;;3.87;2.10;;;20.80;78.10;;;;;;4916900;29;20513;-71
2022/04/27 15:37:50;;;;;;;3.97;2.30;;;21.00;77.30;;;;;;4916552;29;20460;-71
2022/04/27 15:40:20;;;;;;;1.90;1.80;;;21.10;78.80;;;;;;4917024;29;20471;-71
2022/04/27 15:42:48;;;;;;;4.07;2.40;;;21.40;77.60;;;;;;4916384;29;20515;-70
2022/04/27 15:45:16;;;;;;;3.17;2.03;;;21.40;77.00;;;;;;4917026;29;20464;-71
2022/04/27 15:47:43;;;;;;;4.60;2.40;;;21.60;77.50;;;;;;4915306;29;20475;-70
2022/04/27 15:50:11;;;;;;;3.87;1.93;;;21.70;76.60;;;;;;4916692;29;20456;-70
2022/04/27 15:52:42;;;;;;;2.53;1.90;;;21.90;75.50;;;;;;4912876;29;20480;-71
2022/04/27 15:55:15;;;;;;;3.33;2.20;;;22.00;74.80;;;;;;4914004;29;20978;-72
2022/04/27 15:57:51;;;;;;;1.90;1.70;;;21.90;73.70;;;;;;4916026;29;20452;-72
2022/04/27 16:00:32;;;;;;;2.70;1.70;;;21.80;73.30;;;;;;4916665;29;20474;-71
2022/04/27 16:03:05;;;;;;;3.50;2.43;;;21.90;74.10;;;;;;4915938;29;20468;-72
2022/04/27 16:05:36;;;;;;;2.00;1.70;;;22.10;74.40;;;;;;4913467;29;20475;-74
2022/04/27 16:08:04;;;;;;;2.87;2.20;;;22.00;74.60;;;;;;4912759;29;20474;-71
2022/04/27 16:10:59;;;;;;;2.90;2.30;;;21.60;74.10;;;;;;4909608;29;20986;-71
2022/04/27 16:13:31;;;;;;;2.87;2.10;;;21.60;75.00;;;;;;4911306;29;20456;-73
2022/04/27 16:16:01;;;;;;;4.27;2.30;;;21.80;75.10;;;;;;4915247;29;21081;-72
2022/04/27 16:18:32;;;;;;;4.97;3.13;;;21.80;75.90;;;;;;4906630;29;20456;-71
2022/04/27 16:23:44;;;;;;;3.17;1.87;;;21.70;75.60;;;;;;4915574;29;20522;-74
2022/04/27 16:26:13;;;;;;;2.10;1.83;;;21.50;74.70;;;;;;4915128;29;20870;-72
2022/04/27 16:28:41;;;;;;;3.17;2.10;;;21.40;74.70;;;;;;4915591;29;20517;-75
2022/04/27 16:31:08;;;;;;;2.87;2.30;;;21.00;75.80;;;;;;4915365;29;20968;-71
2022/04/27 16:33:37;;;;;;;2.40;1.90;;;20.40;76.10;;;;;;4915655;29;20973;-73
2022/04/27 16:36:04;;;;;;;2.40;1.80;;;19.80;78.30;;;;;;4914980;29;20462;-74
2022/04/27 16:38:32;;;;;;;2.30;1.70;;;19.40;78.40;;;;;;4915638;29;20468;-73
2022/04/27 16:41:01;;;;;;;4.37;2.20;;;19.10;77.10;;;;;;4915379;29;20474;-73
2022/04/27 16:43:29;;;;;;;2.90;1.80;;;18.70;78.50;;;;;;4915541;29;20544;-72
2022/04/27 16:45:58;;;;;;;2.30;1.87;;;18.50;79.10;;;;;;4915413;29;20459;-73
2022/04/27 16:48:26;;;;;;;2.00;1.70;;;18.40;77.80;;;;;;4915266;29;20992;-75
2022/04/27 16:50:53;;;;;;;1.97;1.67;;;18.50;79.20;;;;;;4915698;29;20456;-73
2022/04/27 16:53:20;;;;;;;2.80;2.00;;;18.50;79.70;;;;;;4915211;29;20460;-73
2022/04/27 16:55:47;;;;;;;2.50;1.80;;;18.60;80.00;;;;;;4914202;29;20471;-73
2022/04/27 16:58:18;;;;;;;2.87;1.80;;;18.60;77.00;;;;;;4915428;29;20495;-71
2022/04/27 17:00:56;;;;;;;2.50;1.90;;;18.60;78.00;;;;;;4915347;29;20468;-73
2022/04/27 17:03:28;;;;;;;2.40;1.83;;;18.70;77.90;;;;;;4915174;29;20464;-70
2022/04/27 17:05:56;;;;;;;2.60;1.83;;;18.60;78.50;;;;;;4915271;29;20880;-69
2022/04/27 17:08:23;;;;;;;2.00;1.83;;;18.70;79.30;;;;;;4913756;29;20491;-70
2022/04/27 17:10:55;;;;;;;1.90;1.50;;;18.50;79.30;;;;;;4915203;29;20459;-70
2022/04/27 17:13:22;;;;;;;2.00;1.80;;;18.30;79.80;;;;;;4915086;29;20468;-70
2022/04/27 17:15:49;;;;;;;2.17;1.70;;;18.30;80.30;;;;;;4915007;29;20998;-70
2022/04/27 17:18:16;;;;;;;3.47;1.77;;;18.20;80.00;;;;;;4915016;29;20471;-69
2022/04/27 17:20:46;;;;;;;1.77;1.73;;;18.10;81.10;;;;;;4914894;29;20456;-70
2022/04/27 17:23:14;;;;;;;1.50;1.40;;;18.10;81.80;;;;;;4915372;29;20468;-69
2022/04/27 17:28:28;;;;;;;2.47;1.80;;;18.20;81.40;;;;;;4915257;29;21006;-71
2022/04/27 17:30:55;;;;;;;2.23;1.83;;;18.00;82.60;;;;;;4913787;29;20480;-70
2022/04/27 17:33:22;;;;;;;1.97;1.80;;;17.80;83.10;;;;;;4915115;29;20467;-70
2022/04/27 17:35:51;;;;;;;2.17;1.73;;;17.80;82.80;;;;;;4915004;29;20475;-70
2022/04/27 17:38:19;;;;;;;4.30;2.20;;;17.80;83.20;;;;;;4914905;29;20976;-69
2022/04/27 17:40:46;;;;;;;1.93;1.70;;;17.70;82.90;;;;;;4915051;29;20459;-70
2022/04/27 17:43:13;;;;;;;2.70;1.97;;;17.40;82.80;;;;;;4915274;29;20487;-69
2022/04/27 17:45:41;;;;;;;1.90;1.60;;;17.30;84.60;;;;;;4917544;29;20491;-70
2022/04/27 17:48:09;;;;;;;2.00;1.70;;;17.30;84.40;;;;;;4918680;29;20927;-69
2022/04/27 17:50:36;;;;;;;1.93;1.83;;;17.30;84.90;;;;;;4919078;29;20989;-70
2022/04/27 17:53:06;;;;;;;3.13;1.70;;;17.10;85.50;;;;;;4918680;29;20841;-70
2022/04/27 17:55:33;;;;;;;2.30;1.77;;;17.00;84.70;;;;;;4918791;29;20470;-69
2022/04/27 17:58:04;;;;;;;2.20;1.77;;;16.90;85.80;;;;;;4918480;29;20471;-69
2022/04/27 18:00:34;;;;;;;2.60;1.60;;;16.80;86.70;;;;;;4918624;29;20476;-71
2022/04/27 18:03:01;;;;;;;2.27;1.60;;;16.70;88.80;;;;;;4918160;29;20515;-69
2022/04/27 18:05:29;;;;;;;2.50;1.90;;;16.70;92.20;;;;;;4918528;29;20550;-70
2022/04/27 18:07:56;;;;;;;2.03;1.80;;;16.50;92.00;;;;;;4918188;29;20490;-70
2022/04/27 18:10:26;;;;;;;2.97;1.87;;;16.30;92.10;;;;;;4917117;29;20503;-71
2022/04/27 18:12:54;;;;;;;3.33;2.00;;;16.10;93.40;;;;;;4918204;29;20789;-70
2022/04/27 18:15:22;;;;;;;3.07;2.03;;;16.10;92.70;;;;;;4918274;29;20460;-70
2022/04/27 18:17:49;;;;;;;2.63;1.80;;;15.90;93.90;;;;;;4918046;29;20464;-70
2022/04/27 18:20:20;;;;;;;1.83;1.50;;;15.60;96.30;;;;;;4918223;29;20842;-69
2022/04/27 18:22:48;;;;;;;1.83;1.57;;;15.30;95.90;;;;;;4917988;29;20478;-69
2022/04/27 18:25:18;;;;;;;3.10;1.70;;;15.20;95.70;;;;;;4916776;29;20497;-69
2022/04/27 18:27:48;;;;;;;2.13;1.50;;;15.10;96.30;;;;;;4916736;29;20498;-69
2022/04/27 18:30:16;;;;;;;2.00;1.60;;;14.90;97.20;;;;;;4917937;29;20467;-69
2022/04/27 18:32:45;;;;;;;1.53;1.50;;;14.80;96.80;;;;;;4916699;29;20462;-71
2022/04/27 18:35:13;;;;;;;2.17;1.50;;;14.70;95.90;;;;;;4915516;29;20466;-69
2022/04/27 18:37:41;;;;;;;1.63;1.30;;;14.60;95.60;;;;;;4917650;29;20561;-69
2022/04/27 18:40:12;;;;;;;2.23;1.73;;;14.50;95.80;;;;;;4917706;29;20960;-69
2022/04/27 18:42:45;;;;;;;2.23;1.73;;;14.40;95.60;;;;;;4916725;29;20462;-69
2022/04/27 18:50:47;;;;;;;4.00;2.40;;;14.20;97.20;;;;;;4917798;29;20598;-69
2022/04/27 18:53:19;;;;;;;3.77;2.43;;;14.10;97.50;;;;;;4917714;29;20470;-69
2022/04/27 18:55:47;;;;;;;2.80;1.70;;;14.10;97.40;;;;;;4916025;29;20470;-69
2022/04/27 18:58:17;;;;;;;1.90;1.53;;;14.00;97.50;;;;;;4917641;29;20468;-69
2022/04/27 19:00:53;;;;;;;2.90;2.10;;;13.90;97.70;;;;;;4916028;29;20467;-69
2022/04/27 19:03:24;;;;;;;1.97;1.60;;;13.70;98.00;;;;;;4916261;29;20474;-69
2022/04/27 19:05:53;;;;;;;2.27;2.03;;;13.70;98.00;;;;;;4916905;29;20488;-69
2022/04/27 19:08:20;;;;;;;1.90;1.73;;;13.60;98.00;;;;;;4916068;29;20473;-68
2022/04/27 19:10:49;;;;;;;2.27;2.10;;;13.50;98.00;;;;;;4916053;29;20466;-69
2022/04/27 19:13:16;;;;;;;1.63;1.60;;;13.40;98.00;;;;;;4917200;29;20912;-69
2022/04/27 19:15:45;;;;;;;2.03;1.70;;;13.30;98.00;;;;;;4917210;29;20966;-69
2022/04/27 19:18:14;;;;;;;2.63;2.00;;;13.30;98.00;;;;;;4916826;29;20472;-69
2022/04/27 19:20:42;;;;;;;1.97;1.87;;;13.20;98.00;;;;;;4917022;29;20457;-69
2022/04/27 19:23:13;;;;;;;1.70;1.30;;;13.10;98.00;;;;;;4916822;29;20464;-68
2022/04/27 19:25:42;;;;;;;2.30;1.93;;;13.00;98.00;;;;;;4915910;29;21028;-69
2022/04/27 19:28:12;;;;;;;2.13;1.40;;;12.90;98.00;;;;;;4916960;29;20504;-69
2022/04/27 19:30:42;;;;;;;1.60;1.23;;;12.90;98.00;;;;;;4915861;29;21025;-69
2022/04/27 19:33:16;;;;;;;2.20;1.50;;;12.90;98.00;;;;;;4915323;29;20664;-69
2022/04/27 19:35:52;;;;;;;1.67;1.40;;;12.80;98.00;;;;;;4916622;29;20965;-69
2022/04/27 19:38:19;;;;;;;2.13;2.00;;;12.80;98.00;;;;;;4916107;29;20466;-69
2022/04/27 19:40:53;;;;;;;1.80;1.63;;;12.80;98.00;;;;;;4916517;29;20464;-69
2022/04/27 19:43:23;;;;;;;1.70;1.60;;;12.80;98.00;;;;;;4916920;29;20538;-69
2022/04/27 19:48:39;;;;;;;1.67;1.30;;;12.40;98.00;;;;;;4916593;29;20506;-69
2022/04/27 19:51:14;;;;;;;2.80;1.73;;;12.50;98.00;;;;;;4915301;29;20462;-68
2022/04/27 19:53:42;;;;;;;3.20;1.40;;;12.50;98.00;;;;;;4915934;29;20552;-68
2022/04/27 19:56:15;;;;;;;1.70;1.53;;;12.50;98.00;;;;;;4916516;29;20474;-68
2022/04/27 19:58:43;;;;;;;1.30;1.27;;;12.50;98.00;;;;;;4916311;29;20511;-68
2022/04/27 20:01:12;;;;;;;1.90;1.33;;;12.30;98.00;;;;;;4916304;29;20464;-67
2022/04/27 20:03:41;;;;;;;1.30;1.17;;;12.30;98.00;;;;;;4899607;29;20473;-67
2022/04/27 20:06:10;;;;;;;1.47;1.40;;;11.90;98.00;;;;;;4914178;29;20488;-68
2022/04/27 20:08:39;;;;;;;1.70;1.70;;;11.70;98.00;;;;;;4916217;29;20481;-67
2022/04/27 20:11:07;;;;;;;1.67;1.60;;;11.60;98.00;;;;;;4916024;29;20453;-67
2022/04/27 20:13:35;;;;;;;2.60;1.50;;;11.50;98.00;;;;;;4914669;29;20463;-68
2022/04/27 20:16:02;;;;;;;4.87;2.53;;;11.40;98.00;;;;;;4915838;29;20568;-70
2022/04/27 20:18:30;;;;;;;2.40;1.90;;;11.20;98.00;;;;;;4915688;29;20477;-68
2022/04/27 20:20:58;;;;;;;1.97;1.67;;;11.00;98.00;;;;;;4916023;29;20553;-70
2022/04/27 20:23:27;;;;;;;2.23;1.67;;;10.90;98.00;;;;;;4915727;29;20476;-68
2022/04/27 20:25:54;;;;;;;2.13;1.70;;;11.00;98.00;;;;;;4914304;29;20497;-69
2022/04/27 20:28:27;;;;;;;1.30;1.17;;;10.90;98.00;;;;;;4915581;29;20461;-74
2022/04/27 20:30:54;;;;;;;1.87;1.50;;;10.70;98.00;;;;;;4915450;29;20471;-67
2022/04/27 20:33:22;;;;;;;2.10;1.40;;;10.70;98.00;;;;;;4916357;29;20475;-68
2022/04/27 20:35:50;;;;;;;1.50;1.40;;;10.60;98.00;;;;;;4915333;29;20476;-66
2022/04/27 20:38:19;;;;;;;2.30;1.63;;;10.60;98.00;;;;;;4916462;29;20471;-67
2022/04/27 20:40:48;;;;;;;1.80;1.70;;;10.60;98.00;;;;;;4916540;29;20827;-68
2022/04/27 20:43:18;;;;;;;1.30;1.30;;;10.60;98.00;;;;;;4916512;29;20460;-68
2022/04/27 20:45:49;;;;;;;1.57;1.30;;;10.50;98.00;;;;;;4916221;29;20488;-68
2022/04/27 20:48:17;;;;;;;2.53;1.60;;;10.40;98.00;;;;;;4915868;29;20476;-67
2022/04/27 20:50:44;;;;;;;1.93;1.60;;;10.30;98.00;;;;;;4916281;29;20464;-67
2022/04/27 20:53:11;;;;;;;2.40;1.87;;;10.40;98.00;;;;;;4916035;29;20465;-68
2022/04/27 20:55:40;;;;;;;2.07;1.40;;;10.30;98.00;;;;;;4914796;29;20464;-67
2022/04/27 20:58:09;;;;;;;2.27;1.47;;;10.30;98.00;;;;;;4915914;29;20461;-67
2022/04/27 21:00:40;;;;;;;1.30;1.30;;;10.30;98.00;;;;;;4915922;29;20467;-68
2022/04/27 21:03:08;;;;;;;1.50;1.50;;;10.40;98.00;;;;;;4915658;29;20457;-66
2022/04/27 21:05:36;;;;;;;2.07;1.73;;;10.20;98.00;;;;;;4915780;29;20492;-67
2022/04/27 21:08:03;;;;;;;1.60;1.47;;;10.10;98.00;;;;;;4915758;29;20500;-66
2022/04/27 21:10:31;;;;;;;1.50;1.33;;;9.90;98.00;;;;;;4915913;29;20459;-66
2022/04/27 21:12:59;;;;;;;2.43;1.67;;;9.90;98.00;;;;;;4915857;29;20459;-66
2022/04/27 21:15:27;;;;;;;3.10;2.03;;;9.70;98.00;;;;;;4915112;29;20462;-67
2022/04/27 21:17:55;;;;;;;2.17;1.77;;;9.70;98.00;;;;;;4913885;29;20966;-68
2022/04/27 21:22:57;;;;;;;1.90;1.57;;;9.50;98.00;;;;;;5030347;23;20525;-70
2022/04/27 21:25:24;;;;;;;1.90;1.70;;;9.50;98.00;;;;;;4934057;29;20510;-68
2022/04/27 21:27:53;;;;;;;2.03;1.77;;;9.30;98.00;;;;;;4933857;29;20461;-68
2022/04/27 21:30:21;;;;;;;4.80;2.13;;;9.20;98.00;;;;;;4932684;29;21005;-68
2022/04/27 21:32:50;;;;;;;1.60;1.20;;;9.20;98.00;;;;;;4934200;29;20461;-69
2022/04/27 21:35:18;;;;;;;2.17;1.47;;;9.20;98.00;;;;;;4933043;29;20470;-69
2022/04/27 21:37:47;;;;;;;1.97;1.30;;;9.00;98.00;;;;;;4933994;29;20466;-68
2022/04/27 21:40:17;;;;;;;1.50;1.23;;;9.10;98.00;;;;;;4934148;29;20455;-69
2022/04/27 21:42:44;;;;;;;1.83;1.40;;;9.10;98.00;;;;;;4934225;29;20491;-68
2022/04/27 21:45:11;;;;;;;1.80;1.70;;;9.10;98.00;;;;;;4934309;29;20490;-68
2022/04/27 21:47:39;;;;;;;3.47;1.97;;;8.90;98.00;;;;;;4935390;29;20524;-69
2022/04/27 21:50:11;;;;;;;2.33;1.60;;;8.80;98.00;;;;;;4934139;29;20968;-69
2022/04/27 21:52:39;;;;;;;2.70;2.10;;;8.90;98.00;;;;;;4934808;29;20554;-69
2022/04/27 21:55:09;;;;;;;1.77;1.63;;;8.90;98.00;;;;;;4934932;29;20462;-68
2022/04/27 21:57:36;;;;;;;1.20;1.10;;;8.90;98.00;;;;;;4933932;29;20519;-68
2022/04/27 22:00:05;;;;;;;1.73;1.50;;;9.00;98.00;;;;;;4933804;29;20469;-69
2022/04/27 22:02:32;;;;;;;1.77;1.57;;;9.00;98.00;;;;;;4933806;29;20828;-69
2022/04/27 22:04:59;;;;;;;2.07;1.67;;;8.90;98.00;;;;;;4933630;29;20463;-68
2022/04/27 22:07:28;;;;;;;2.13;1.73;;;8.80;98.00;;;;;;4933759;29;20459;-69
2022/04/27 22:09:56;;;;;;;3.30;1.73;;;8.70;98.00;;;;;;4933646;29;20537;-68
2022/04/27 22:12:26;;;;;;;1.83;1.30;;;8.70;98.00;;;;;;4932512;29;20458;-68
2022/04/27 22:14:55;;;;;;;2.20;1.40;;;8.50;98.00;;;;;;4933650;29;20835;-70
2022/04/27 22:17:23;;;;;;;1.70;1.60;;;8.50;98.00;;;;;;4933759;29;20456;-68
2022/04/27 22:19:51;;;;;;;1.60;1.33;;;8.50;98.00;;;;;;4933504;29;20475;-69
2022/04/27 22:22:19;;;;;;;1.40;1.20;;;8.70;98.00;;;;;;4933397;29;20475;-68
2022/04/27 22:24:47;;;;;;;1.27;1.23;;;8.70;98.00;;;;;;4933542;29;21031;-69
2022/04/27 22:27:15;;;;;;;1.43;1.20;;;8.60;98.00;;;;;;4933480;29;20529;-68
2022/04/27 22:29:43;;;;;;;1.97;1.40;;;8.50;98.00;;;;;;4934642;29;20471;-70
2022/04/27 22:32:11;;;;;;;1.77;1.67;;;8.30;98.00;;;;;;4935448;29;20467;-69
2022/04/27 22:34:41;;;;;;;3.20;1.87;;;8.30;98.00;;;;;;4936833;29;20495;-68
2022/04/27 22:37:09;;;;;;;1.30;1.10;;;8.40;98.00;;;;;;4936908;29;20487;-69
2022/04/27 22:39:37;;;;;;;2.00;1.40;;;8.40;98.00;;;;;;4935632;29;20510;-69
2022/04/27 22:42:12;;;;;;;1.30;1.20;;;8.40;98.00;;;;;;4935542;29;20493;-68
2022/04/27 22:44:40;;;;;;;2.13;1.40;;;8.30;98.00;;;;;;4935789;29;20821;-68
2022/04/27 22:47:07;;;;;;;1.40;1.10;;;8.30;98.00;;;;;;4936838;29;20517;-68
2022/04/27 22:49:35;;;;;;;3.30;2.00;;;8.30;98.00;;;;;;4936655;29;20459;-69
2022/04/27 22:52:03;;;;;;;1.40;1.20;;;8.20;98.00;;;;;;4936683;29;20472;-69
2022/04/27 22:54:31;;;;;;;1.20;1.10;;;8.10;98.00;;;;;;4935300;29;20467;-67
2022/04/27 22:56:58;;;;;;;1.50;1.40;;;8.10;98.00;;;;;;4936415;29;20535;-68
2022/04/27 22:59:32;;;;;;;2.00;1.63;;;8.20;98.00;;;;;;4936279;29;20533;-69
2022/04/27 23:02:00;;;;;;;1.50;1.50;;;8.20;98.00;;;;;;4936497;29;20504;-67
2022/04/27 23:04:28;;;;;;;4.80;2.53;;;8.10;98.00;;;;;;4934499;29;20532;-69
2022/04/27 23:06:55;;;;;;;1.40;1.40;;;8.10;98.00;;;;;;4936229;29;20486;-68
2022/04/27 23:12:09;;;;;;;4.97;2.03;;;8.10;98.00;;;;;;4935276;29;20885;-68
2022/04/27 23:14:38;;;;;;;2.07;1.40;;;8.10;98.00;;;;;;4936243;29;20562;-69
2022/04/27 23:17:06;;;;;;;1.20;1.20;;;8.10;98.00;;;;;;4936054;29;20990;-69
2022/04/27 23:19:34;;;;;;;1.67;1.30;;;8.00;98.00;;;;;;4936292;29;20808;-69
2022/04/27 23:22:01;;;;;;;3.10;1.60;;;8.10;98.00;;;;;;4936019;29;20469;-68
2022/04/27 23:24:28;;;;;;;2.10;1.60;;;8.00;98.00;;;;;;4936029;29;20452;-68
2022/04/27 23:26:56;;;;;;;1.97;1.63;;;8.00;98.00;;;;;;4935913;29;20569;-69
2022/04/27 23:29:24;;;;;;;2.40;1.83;;;8.00;98.00;;;;;;4934499;29;20456;-68